Yorkton, Canada
Current Conditions -  °F | °C
As of 11:00 AM on Thursday 30 Oct 2014 (Local Time) from CYQV Reporting Station
Broken Clouds Broken Clouds  
Wind Chill: 19°   Ceiling: 2700
Heat Index: 28°   Visibility: 9mi
Dew Point: 19°   Wind: 10mph
Humidity: 69%   Direction: 20°NNE
Pressure: 30.49"   Gusts: 17mph
Location:  51.2°N, 102.45°W
Report Text: CYQV 301700Z AUTO 02009G15KT 9SM BKN027 M02/M07 A3049 RMK SLP354
Loading
Personal Weather Stations






























Interactive Weather Map
Tropical Storm Tracking
New forecast layout! Learn more

10-Day Weather Forecast

Advertisements
Track Severe Weather on mobile